You are not logged in, Click here to log in
臺中清泉崗機場RMQ / RCMQ 臺灣臺中市
ICAO: RCMQ Country: 臺灣臺中市
Latitude: 24.255 Longitude: 120.601
Total Arrivals: 65 Total Departures: 63
Latest Arrival: GE681G (ROAH-RCMQ)Lun. Wang Latest Departure: BR819 (RCMQ-VMMC)Lun. Wang
Scenery:
METAR : RCMQ 131000Z 35008KT 9999 FEW012 SCT030 18/16 Q1021 NOSIG RMK A3016

臺中清泉崗機場RMQ

You are accessing this site from IP address 100.26.176.182. Virtual Airline. CMS by phpVMS.Website designed by Zumeweb and edited by Theo Bearman.
There is 0 User(s) Online: | and 11 Guest(s) Online.
All information on this site is for fight simulation purposes only. This site is for flight logging for pilots of Virtual Airline&模擬飛行論壇 FlySim only.